createdAt,value
2022-09-22T00:01:27.354Z,8.68
2022-09-22T00:03:56.986Z,4.57
2022-09-22T00:09:00.930Z,5.10
2022-09-22T00:11:49.538Z,5.43
2022-09-22T00:14:23.281Z,6.63
2022-09-22T00:16:53.680Z,4.95
2022-09-22T00:19:23.524Z,6.95
2022-09-22T00:21:51.328Z,4.53
2022-09-22T00:24:19.876Z,5.43
2022-09-22T00:26:46.730Z,6.43
2022-09-22T00:29:13.818Z,4.90
2022-09-22T00:31:43.610Z,6.43
2022-09-22T00:34:22.762Z,5.18
2022-09-22T00:36:50.106Z,5.00
2022-09-22T00:39:18.083Z,4.95
2022-09-22T00:41:48.430Z,5.47
2022-09-22T00:44:29.941Z,4.47
2022-09-22T00:47:06.093Z,4.67
2022-09-22T00:50:16.061Z,5.95
2022-09-22T00:53:04.643Z,4.47
2022-09-22T00:55:40.623Z,4.97
2022-09-22T00:58:12.560Z,7.20
2022-09-22T01:00:39.720Z,4.22
2022-09-22T01:03:11.479Z,5.63
2022-09-22T01:05:40.350Z,6.25
2022-09-22T01:08:08.788Z,5.47
2022-09-22T01:10:35.754Z,4.78
2022-09-22T01:13:19.068Z,5.55
2022-09-22T01:15:54.670Z,6.63
2022-09-22T01:18:28.599Z,6.32
2022-09-22T01:21:16.068Z,8.60
2022-09-22T01:24:20.350Z,5.50
2022-09-22T01:27:13.069Z,6.80
2022-09-22T01:29:54.825Z,5.05
2022-09-22T01:32:32.404Z,6.05
2022-09-22T01:35:06.138Z,6.78
2022-09-22T01:37:54.358Z,8.02
2022-09-22T01:40:32.671Z,4.70
2022-09-22T01:43:16.875Z,7.30
2022-09-22T01:45:47.218Z,6.50
2022-09-22T01:48:27.818Z,6.40
2022-09-22T01:51:04.433Z,7.88
2022-09-22T01:53:39.739Z,7.18
2022-09-22T01:56:09.325Z,6.85
2022-09-22T01:58:42.158Z,7.07
2022-09-22T02:01:14.927Z,8.57
2022-09-22T02:03:50.774Z,7.25
2022-09-22T02:06:26.869Z,8.48
2022-09-22T02:08:59.928Z,8.07
2022-09-22T02:11:26.834Z,6.25
2022-09-22T02:13:54.171Z,6.93
2022-09-22T02:16:26.511Z,6.50
2022-09-22T02:19:12.421Z,6.18
2022-09-22T02:21:41.933Z,5.47
2022-09-22T02:24:26.897Z,6.60
2022-09-22T02:26:55.336Z,5.53
2022-09-22T02:29:23.116Z,6.90
2022-09-22T02:31:50.985Z,6.05
2022-09-22T02:34:18.847Z,8.35
2022-09-22T02:37:08.461Z,5.70
2022-09-22T02:39:49.829Z,8.43
2022-09-22T02:42:33.782Z,3.83
2022-09-22T02:45:13.334Z,6.22
2022-09-22T02:48:10.578Z,6.82
2022-09-22T02:50:38.229Z,4.57
2022-09-22T02:53:12.570Z,5.13
2022-09-22T02:55:39.596Z,5.75
2022-09-22T02:58:06.380Z,6.05
2022-09-22T03:00:33.374Z,6.28
2022-09-22T03:03:00.428Z,6.13
2022-09-22T03:05:27.228Z,6.55
2022-09-22T03:07:53.934Z,7.65
2022-09-22T03:10:20.826Z,7.18
2022-09-22T03:13:14.342Z,6.80
2022-09-22T03:15:34.564Z,6.57
2022-09-22T03:18:01.362Z,7.13
2022-09-22T03:20:28.153Z,6.65
2022-09-22T03:22:54.924Z,6.82
2022-09-22T03:25:21.656Z,7.15
2022-09-22T03:27:48.460Z,7.20
2022-09-22T03:30:15.201Z,6.22
2022-09-22T03:32:42.008Z,6.13
2022-09-22T03:35:09.432Z,5.70
2022-09-22T03:37:36.509Z,5.82
2022-09-22T03:40:04.526Z,5.97
2022-09-22T03:42:33.003Z,10.45
2022-09-22T03:44:59.951Z,7.45
2022-09-22T03:47:26.883Z,6.60
2022-09-22T03:49:53.638Z,6.78
2022-09-22T03:52:20.583Z,6.65
2022-09-22T03:54:47.342Z,4.78
2022-09-22T03:57:14.494Z,5.63
2022-09-22T03:59:41.456Z,5.63
2022-09-22T04:02:09.178Z,4.47
2022-09-22T04:04:36.214Z,4.68
2022-09-22T04:07:07.058Z,4.50
2022-09-22T04:09:34.889Z,5.70
2022-09-22T04:12:02.108Z,5.00
2022-09-22T04:14:29.017Z,6.60
2022-09-22T04:16:56.894Z,5.45
2022-09-22T04:19:23.884Z,6.32
2022-09-22T04:21:56.217Z,5.85
2022-09-22T04:24:24.604Z,6.22
2022-09-22T04:27:15.610Z,4.55
2022-09-22T04:29:38.687Z,5.60
2022-09-22T04:32:05.817Z,5.03
2022-09-22T04:34:32.792Z,8.00
2022-09-22T04:36:59.666Z,6.07
2022-09-22T04:39:28.670Z,7.22
2022-09-22T04:41:55.924Z,6.18
2022-09-22T04:44:23.614Z,8.48
2022-09-22T04:46:50.465Z,6.80
2022-09-22T04:49:18.439Z,6.25
2022-09-22T04:51:45.543Z,5.07
2022-09-22T04:54:14.120Z,4.95
2022-09-22T04:56:42.374Z,5.85
2022-09-22T04:59:09.383Z,6.82
2022-09-22T05:01:36.349Z,10.55
2022-09-22T05:04:03.424Z,10.02
2022-09-22T05:06:31.086Z,8.23
2022-09-22T05:08:58.645Z,6.78
2022-09-22T05:11:25.561Z,7.38
2022-09-22T05:13:52.444Z,6.88
2022-09-22T05:16:19.529Z,5.90
2022-09-22T05:18:46.529Z,6.13
2022-09-22T05:21:13.277Z,6.53
2022-09-22T05:23:40.052Z,6.97
2022-09-22T05:26:07.063Z,6.35
2022-09-22T05:28:34.016Z,5.80
2022-09-22T05:31:00.924Z,8.18
2022-09-22T05:33:27.801Z,5.95
2022-09-22T05:35:54.549Z,5.53
2022-09-22T05:38:21.457Z,5.80
2022-09-22T05:40:48.460Z,6.32
2022-09-22T05:43:15.988Z,5.75
2022-09-22T05:45:44.451Z,6.38
2022-09-22T05:48:11.283Z,6.32
2022-09-22T05:50:38.268Z,5.70
2022-09-22T05:53:07.117Z,9.70
2022-09-22T05:55:34.100Z,8.63
2022-09-22T05:58:01.288Z,6.05
2022-09-22T06:00:28.913Z,9.07
2022-09-22T06:02:55.840Z,4.68
2022-09-22T06:05:22.725Z,6.57
2022-09-22T06:07:59.132Z,5.70
2022-09-22T06:10:25.850Z,5.60
2022-09-22T06:12:58.693Z,6.82
2022-09-22T06:15:26.045Z,7.05
2022-09-22T06:17:53.261Z,7.88
2022-09-22T06:20:20.061Z,9.18
2022-09-22T06:22:46.810Z,8.48
2022-09-22T06:25:13.552Z,5.75
2022-09-22T06:27:40.338Z,6.80
2022-09-22T06:30:11.161Z,8.63
2022-09-22T06:32:43.816Z,7.03
2022-09-22T06:35:11.407Z,7.97
2022-09-22T06:37:40.790Z,9.10
2022-09-22T06:40:08.682Z,9.18
2022-09-22T06:42:36.211Z,8.85
2022-09-22T06:45:04.693Z,11.18
2022-09-22T06:47:32.992Z,11.50
2022-09-22T06:50:01.319Z,13.52
2022-09-22T06:52:28.984Z,17.73
2022-09-22T06:54:58.635Z,14.35
2022-09-22T06:57:28.005Z,16.00
2022-09-22T06:59:54.802Z,14.70
2022-09-22T07:02:28.220Z,21.08
2022-09-22T07:04:59.044Z,19.05
2022-09-22T07:07:28.041Z,20.90
2022-09-22T07:09:55.544Z,21.45
2022-09-22T07:12:22.613Z,18.85
2022-09-22T07:14:58.030Z,17.83
2022-09-22T07:17:26.524Z,19.05
2022-09-22T07:19:54.166Z,20.77
2022-09-22T07:22:20.884Z,16.58
2022-09-22T07:24:47.605Z,16.65
2022-09-22T07:27:14.733Z,15.75
2022-09-22T07:29:42.859Z,14.02
2022-09-22T07:32:10.885Z,18.23
2022-09-22T07:34:37.797Z,12.82
2022-09-22T07:37:04.611Z,12.75
2022-09-22T07:39:31.344Z,13.20
2022-09-22T07:41:58.041Z,14.90
2022-09-22T07:44:44.674Z,11.90
2022-09-22T07:47:37.848Z,11.85
2022-09-22T07:50:05.097Z,11.88
2022-09-22T07:52:31.889Z,11.70
2022-09-22T07:54:58.589Z,10.95
2022-09-22T07:57:25.397Z,10.73
2022-09-22T07:59:52.173Z,9.35
2022-09-22T08:02:18.972Z,8.90
2022-09-22T08:04:45.734Z,7.43
2022-09-22T08:07:15.107Z,8.30
2022-09-22T08:09:41.786Z,7.30
2022-09-22T08:12:10.089Z,11.18
2022-09-22T08:14:36.821Z,9.00
2022-09-22T08:17:03.630Z,8.60
2022-09-22T08:19:30.475Z,6.78
2022-09-22T08:21:57.719Z,5.70
2022-09-22T08:24:24.634Z,6.68
2022-09-22T08:26:53.244Z,6.97
2022-09-22T08:29:20.650Z,5.65
2022-09-22T08:31:49.260Z,5.43
2022-09-22T08:34:17.559Z,5.65
2022-09-22T08:36:46.196Z,5.53
2022-09-22T08:39:14.094Z,5.60
2022-09-22T08:41:48.317Z,5.15
2022-09-22T08:44:41.391Z,6.28
2022-09-22T08:47:40.359Z,5.38
2022-09-22T08:50:39.400Z,6.22
2022-09-22T08:53:12.456Z,4.13
2022-09-22T08:55:43.183Z,4.57
2022-09-22T08:58:28.704Z,3.60
2022-09-22T09:01:25.516Z,4.32
2022-09-22T09:04:16.727Z,4.15
2022-09-22T09:07:17.667Z,5.65
2022-09-22T09:09:57.920Z,3.08
2022-09-22T09:12:42.424Z,2.75
2022-09-22T09:15:25.900Z,2.15
2022-09-22T09:17:58.196Z,3.95
2022-09-22T09:20:40.025Z,2.72
2022-09-22T09:23:18.124Z,3.35
2022-09-22T09:25:49.806Z,3.08
2022-09-22T09:28:27.824Z,3.40
2022-09-22T09:31:05.188Z,2.65
2022-09-22T09:33:38.252Z,2.45
2022-09-22T09:36:11.453Z,2.03
2022-09-22T09:38:46.771Z,3.33
2022-09-22T09:41:18.262Z,3.03
2022-09-22T09:43:45.583Z,3.67
2022-09-22T09:46:37.158Z,3.88
2022-09-22T09:49:03.893Z,3.95
2022-09-22T09:51:39.586Z,2.78
2022-09-22T09:54:14.452Z,3.95
2022-09-22T09:57:05.460Z,3.30
2022-09-22T09:59:51.371Z,3.65
2022-09-22T10:05:18.967Z,2.83
2022-09-22T10:07:52.827Z,2.80
2022-09-22T10:10:33.326Z,3.00
2022-09-22T10:13:05.738Z,4.05
2022-09-22T10:15:38.005Z,2.78
2022-09-22T10:18:26.657Z,3.17
2022-09-22T10:21:04.291Z,1.95
2022-09-22T10:23:33.716Z,3.13
2022-09-22T10:26:17.604Z,4.43
2022-09-22T10:28:47.265Z,2.78
2022-09-22T10:31:27.633Z,1.58
2022-09-22T10:33:57.256Z,2.28
2022-09-22T10:36:26.163Z,4.15
2022-09-22T10:38:57.418Z,1.50
2022-09-22T10:41:34.239Z,2.53
2022-09-22T10:44:38.623Z,2.05
2022-09-22T10:47:06.608Z,2.03
2022-09-22T10:50:16.524Z,2.05
2022-09-22T10:52:54.776Z,2.80
2022-09-22T10:55:37.279Z,2.60
2022-09-22T10:58:09.860Z,3.35
2022-09-22T11:00:39.525Z,2.53
2022-09-22T11:03:44.053Z,3.15
2022-09-22T11:06:55.369Z,2.95
2022-09-22T11:10:12.417Z,2.10
2022-09-22T11:12:57.276Z,2.58
2022-09-22T11:15:32.842Z,3.33
2022-09-22T11:18:28.621Z,2.42
2022-09-22T11:21:07.102Z,1.92
2022-09-22T11:23:45.121Z,1.30
2022-09-22T11:26:14.908Z,1.92
2022-09-22T11:32:54.330Z,2.40
2022-09-22T11:35:41.109Z,1.60
2022-09-22T11:42:21.575Z,2.25
2022-09-22T11:45:23.356Z,1.55
2022-09-22T11:48:11.436Z,1.65
2022-09-22T11:50:56.417Z,3.10
2022-09-22T11:53:31.194Z,1.95
2022-09-22T11:56:16.751Z,2.03
2022-09-22T11:58:44.911Z,2.30
2022-09-22T12:01:17.675Z,2.30
2022-09-22T12:03:50.098Z,2.35
2022-09-22T12:06:34.338Z,2.80
2022-09-22T12:11:37.808Z,2.75
2022-09-22T12:14:06.467Z,3.55
2022-09-22T12:17:15.540Z,2.72
2022-09-22T12:20:02.689Z,1.88
2022-09-22T12:22:48.211Z,3.85
2022-09-22T12:25:25.853Z,2.75
2022-09-22T12:28:02.595Z,2.70
2022-09-22T12:30:31.850Z,3.22
2022-09-22T12:32:58.682Z,3.65
2022-09-22T12:35:31.311Z,3.45
2022-09-22T12:38:01.954Z,2.75
2022-09-22T12:40:41.517Z,1.73
2022-09-22T12:43:19.862Z,2.65
2022-09-22T12:45:47.431Z,3.05
2022-09-22T12:48:24.767Z,1.83
2022-09-22T12:50:52.307Z,2.78
2022-09-22T12:53:22.116Z,1.58
2022-09-22T12:55:50.142Z,2.35
2022-09-22T12:58:23.729Z,2.25
2022-09-22T13:00:56.165Z,2.22
2022-09-22T13:03:26.215Z,3.28
2022-09-22T13:06:02.309Z,2.90
2022-09-22T13:08:32.515Z,1.33
2022-09-22T13:11:03.343Z,4.72
2022-09-22T13:13:30.019Z,2.53
2022-09-22T13:16:05.111Z,2.55
2022-09-22T13:18:36.783Z,1.92
2022-09-22T13:21:12.534Z,1.15
2022-09-22T13:23:50.887Z,2.50
2022-09-22T13:26:19.715Z,1.88
2022-09-22T13:28:58.838Z,1.58
2022-09-22T13:31:26.489Z,1.33
2022-09-22T13:33:53.238Z,2.00
2022-09-22T13:36:23.458Z,2.03
2022-09-22T13:38:56.244Z,1.35
2022-09-22T13:41:41.024Z,1.77
2022-09-22T13:44:11.785Z,1.88
2022-09-22T13:46:44.534Z,1.10
2022-09-22T13:49:19.154Z,1.52
2022-09-22T13:51:54.994Z,1.52
2022-09-22T13:54:24.400Z,2.47
2022-09-22T13:56:51.203Z,3.35
2022-09-22T13:59:18.240Z,1.75
2022-09-22T14:01:53.304Z,1.75
2022-09-22T14:04:25.626Z,2.20
2022-09-22T14:06:55.970Z,1.08
2022-09-22T14:09:23.481Z,3.83
2022-09-22T14:11:50.359Z,1.65
2022-09-22T14:14:26.171Z,2.72
2022-09-22T14:16:58.276Z,2.53
2022-09-22T14:19:34.799Z,3.10
2022-09-22T14:22:04.413Z,0.98
2022-09-22T14:24:37.045Z,2.10
2022-09-22T14:27:07.665Z,5.47
2022-09-22T14:29:41.122Z,1.95
2022-09-22T14:32:26.493Z,2.05
2022-09-22T14:34:58.622Z,1.58
2022-09-22T14:37:31.809Z,2.60
2022-09-22T14:40:01.360Z,3.45
2022-09-22T14:42:30.821Z,2.10
2022-09-22T14:45:09.565Z,2.33
2022-09-22T14:47:41.302Z,2.28
2022-09-22T14:50:21.552Z,1.48
2022-09-22T14:52:51.841Z,2.80
2022-09-22T14:55:41.686Z,2.97
2022-09-22T14:58:16.196Z,2.50
2022-09-22T15:01:22.680Z,1.55
2022-09-22T15:04:06.146Z,1.98
2022-09-22T15:06:37.492Z,2.38
2022-09-22T15:09:05.189Z,1.75
2022-09-22T15:11:49.010Z,1.60
2022-09-22T15:14:25.842Z,1.30
2022-09-22T15:16:52.554Z,1.10
2022-09-22T15:19:20.515Z,1.88
2022-09-22T15:21:48.490Z,3.05
2022-09-22T15:24:21.275Z,2.15
2022-09-22T15:26:48.090Z,1.58
2022-09-22T15:29:17.285Z,1.60
2022-09-22T15:31:44.188Z,1.40
2022-09-22T15:34:14.635Z,1.52
2022-09-22T15:36:46.626Z,3.53
2022-09-22T15:39:21.837Z,1.98
2022-09-22T15:41:49.197Z,1.88
2022-09-22T15:44:16.808Z,1.67
2022-09-22T15:46:46.182Z,2.35
2022-09-22T15:49:26.207Z,2.55
2022-09-22T15:51:55.950Z,4.88
2022-09-22T15:54:24.259Z,6.72
2022-09-22T15:56:54.286Z,2.53
2022-09-22T15:59:27.920Z,1.60
2022-09-22T16:01:57.016Z,2.70
2022-09-22T16:04:24.091Z,2.20
2022-09-22T16:06:56.485Z,2.28
2022-09-22T16:09:23.277Z,2.38
2022-09-22T16:11:50.118Z,3.40
2022-09-22T16:14:17.756Z,3.55
2022-09-22T16:16:44.557Z,2.10
2022-09-22T16:19:11.542Z,3.97
2022-09-22T16:21:43.103Z,2.35
2022-09-22T16:24:11.641Z,3.70
2022-09-22T16:26:40.087Z,1.35
2022-09-22T16:29:08.381Z,1.58
2022-09-22T16:31:36.266Z,2.10
2022-09-22T16:34:05.413Z,2.15
2022-09-22T16:36:35.189Z,1.60
2022-09-22T16:39:03.160Z,2.53
2022-09-22T16:41:35.061Z,2.50
2022-09-22T16:44:02.968Z,3.65
2022-09-22T16:46:31.597Z,7.53
2022-09-22T16:49:05.758Z,2.35
2022-09-22T16:51:35.577Z,4.05
2022-09-22T16:54:04.379Z,3.28
2022-09-22T16:56:33.452Z,3.20
2022-09-22T16:59:03.409Z,3.08
2022-09-22T17:01:32.115Z,3.00
2022-09-22T17:03:59.179Z,3.58
2022-09-22T17:06:26.496Z,4.07
2022-09-22T17:08:57.091Z,2.00
2022-09-22T17:11:34.439Z,2.25
2022-09-22T17:14:04.639Z,4.57
2022-09-22T17:16:38.482Z,5.68
2022-09-22T17:19:08.122Z,3.67
2022-09-22T17:21:37.201Z,8.57
2022-09-22T17:24:05.857Z,2.38
2022-09-22T17:26:50.328Z,3.58
2022-09-22T17:29:26.264Z,6.03
2022-09-22T17:31:57.859Z,3.33
2022-09-22T17:34:26.533Z,2.70
2022-09-22T17:36:55.466Z,3.40
2022-09-22T17:39:24.123Z,5.18
2022-09-22T17:41:51.216Z,5.60
2022-09-22T17:44:21.277Z,5.15
2022-09-22T17:47:08.181Z,3.03
2022-09-22T17:49:53.399Z,4.03
2022-09-22T17:52:29.219Z,3.30
2022-09-22T17:55:11.203Z,4.32
2022-09-22T17:57:42.994Z,5.95
2022-09-22T18:00:21.767Z,3.83
2022-09-22T18:02:55.583Z,5.57
2022-09-22T18:05:28.114Z,2.88
2022-09-22T18:07:58.598Z,2.45
2022-09-22T18:10:33.926Z,3.08
2022-09-22T18:13:02.095Z,2.90
2022-09-22T18:15:29.355Z,4.75
2022-09-22T18:17:58.324Z,3.63
2022-09-22T18:20:27.395Z,4.70
2022-09-22T18:22:54.738Z,5.18
2022-09-22T18:25:23.937Z,5.13
2022-09-22T18:27:50.815Z,5.75
2022-09-22T18:30:19.314Z,5.35
2022-09-22T18:32:49.715Z,9.25
2022-09-22T18:35:16.942Z,8.73
2022-09-22T18:37:43.878Z,12.15
2022-09-22T18:40:12.595Z,12.75
2022-09-22T18:42:41.385Z,15.73
2022-09-22T18:45:10.035Z,12.50
2022-09-22T18:47:40.856Z,13.20
2022-09-22T18:50:08.163Z,13.55
2022-09-22T18:52:34.869Z,14.02
2022-09-22T18:55:01.925Z,12.82
2022-09-22T18:57:29.108Z,11.40
2022-09-22T18:59:59.849Z,10.32
2022-09-22T19:02:26.822Z,11.98
2022-09-22T19:04:53.916Z,10.82
2022-09-22T19:07:42.583Z,7.85
2022-09-22T19:10:12.850Z,7.38
2022-09-22T19:12:40.029Z,8.88
2022-09-22T19:15:16.577Z,7.72
2022-09-22T19:17:45.484Z,8.60
2022-09-22T19:20:22.480Z,7.72
2022-09-22T19:22:50.539Z,7.25
2022-09-22T19:25:17.974Z,6.70
2022-09-22T19:27:44.688Z,7.35
2022-09-22T19:30:12.054Z,6.78
2022-09-22T19:32:39.442Z,8.18
2022-09-22T19:35:07.753Z,7.68
2022-09-22T19:37:34.929Z,6.80
2022-09-22T19:40:01.743Z,7.13
2022-09-22T19:42:28.831Z,7.95
2022-09-22T19:44:55.841Z,7.15
2022-09-22T19:47:23.475Z,7.15
2022-09-22T19:49:50.287Z,6.28
2022-09-22T19:52:20.203Z,6.28
2022-09-22T19:54:47.599Z,5.85
2022-09-22T19:57:14.545Z,7.22
2022-09-22T19:59:41.345Z,6.40
2022-09-22T20:02:15.381Z,6.00
2022-09-22T20:04:42.529Z,6.25
2022-09-22T20:07:11.018Z,6.97
2022-09-22T20:09:38.003Z,5.95
2022-09-22T20:12:05.755Z,6.50
2022-09-22T20:14:32.804Z,8.70
2022-09-22T20:17:03.292Z,7.22
2022-09-22T20:19:32.158Z,9.05
2022-09-22T20:22:31.667Z,5.93
2022-09-22T20:25:00.456Z,5.40
2022-09-22T20:27:29.722Z,7.65
2022-09-22T20:29:57.616Z,9.25
2022-09-22T20:32:26.211Z,5.80
2022-09-22T20:34:55.392Z,7.18
2022-09-22T20:37:22.908Z,6.35
2022-09-22T20:39:49.802Z,7.47
2022-09-22T20:42:17.489Z,8.48
2022-09-22T20:44:44.342Z,8.07
2022-09-22T20:47:14.704Z,22.60
2022-09-22T20:49:42.065Z,13.90
2022-09-22T20:52:14.861Z,18.10
2022-09-22T20:54:42.179Z,12.98
2022-09-22T20:57:09.201Z,12.07
2022-09-22T20:59:36.191Z,9.20
2022-09-22T21:02:03.050Z,12.30
2022-09-22T21:04:30.441Z,9.45
2022-09-22T21:06:57.920Z,7.65
2022-09-22T21:09:43.303Z,9.82
2022-09-22T21:12:09.993Z,9.60
2022-09-22T21:14:37.075Z,7.75
2022-09-22T21:17:06.771Z,8.65
2022-09-22T21:19:34.508Z,11.15
2022-09-22T21:22:01.357Z,12.77
2022-09-22T21:24:31.226Z,21.13
2022-09-22T21:26:59.432Z,17.15
2022-09-22T21:29:30.271Z,15.63
2022-09-22T21:32:01.441Z,18.92
2022-09-22T21:34:28.255Z,11.18
2022-09-22T21:36:55.014Z,30.75
2022-09-22T21:39:21.991Z,22.95
2022-09-22T21:41:49.223Z,14.65
2022-09-22T21:44:15.993Z,12.40
2022-09-22T21:46:44.250Z,10.90
2022-09-22T21:49:11.226Z,9.50
2022-09-22T21:51:44.053Z,9.18
2022-09-22T21:54:16.814Z,9.73
2022-09-22T21:56:50.756Z,8.55
2022-09-22T21:59:21.702Z,8.13
2022-09-22T22:01:48.589Z,8.65
2022-09-22T22:04:17.517Z,7.63
2022-09-22T22:06:46.325Z,8.90
2022-09-22T22:09:23.953Z,15.10
2022-09-22T22:11:54.078Z,14.85
2022-09-22T22:14:25.019Z,12.35
2022-09-22T22:16:55.749Z,14.73
2022-09-22T22:19:25.761Z,22.95
2022-09-22T22:21:53.301Z,22.38
2022-09-22T22:24:28.921Z,18.27
2022-09-22T22:27:01.643Z,16.20
2022-09-22T22:29:34.719Z,15.27
2022-09-22T22:32:02.278Z,12.63
2022-09-22T22:34:29.088Z,12.88
2022-09-22T22:36:56.387Z,14.73
2022-09-22T22:39:23.172Z,10.43
2022-09-22T22:41:50.182Z,10.88
2022-09-22T22:44:17.935Z,10.45
2022-09-22T22:46:45.659Z,9.88
2022-09-22T22:49:12.725Z,10.23
2022-09-22T22:51:40.208Z,11.38
2022-09-22T22:54:07.055Z,15.13
2022-09-22T22:56:33.797Z,10.77
2022-09-22T22:59:00.612Z,11.82
2022-09-22T23:01:30.289Z,10.13
2022-09-22T23:03:59.676Z,10.98
2022-09-22T23:06:36.102Z,12.57
2022-09-22T23:09:04.828Z,10.05
2022-09-22T23:11:35.857Z,10.15
2022-09-22T23:14:04.045Z,13.30
2022-09-22T23:16:37.000Z,9.32
2022-09-22T23:19:07.681Z,9.32
2022-09-22T23:21:38.537Z,12.50
2022-09-22T23:24:06.250Z,7.55
2022-09-22T23:26:33.100Z,8.95
2022-09-22T23:29:01.591Z,10.18
2022-09-22T23:31:28.520Z,9.52
2022-09-22T23:33:55.262Z,7.70
2022-09-22T23:36:27.002Z,7.95
2022-09-22T23:38:55.402Z,7.55
2022-09-22T23:41:23.185Z,7.03
2022-09-22T23:43:50.534Z,7.28
2022-09-22T23:46:21.159Z,7.80
2022-09-22T23:48:48.123Z,9.73
2022-09-22T23:51:15.178Z,8.70
2022-09-22T23:53:42.009Z,7.32
2022-09-22T23:56:08.728Z,7.47
2022-09-22T23:58:35.847Z,8.85
